Time;durP1;ratioP1;P1;durP2;ratioP2;P2;SDS_P1;SDS_P2;PMS_P1;PMS_P2;Temp;Humidity;BMP_temperature;BMP_pressure;BME280_temperature;BME280_humidity;BME280_pressure;Samples;Min_cycle;Max_cycle;Signal;HPM_P1;HPM_P2
2022/06/21 00:01:15;;;;;;;3.58;3.27;;;;;;;20.20;56.89;100009.06;1696756;84;20959;-87
2022/06/21 00:03:44;;;;;;;6.78;3.42;;;;;;;20.21;56.78;100003.58;1697005;84;20936;-87
2022/06/21 00:06:13;;;;;;;4.97;3.35;;;;;;;20.22;57.10;100005.22;1696757;84;20951;-87
2022/06/21 00:08:41;;;;;;;5.65;3.35;;;;;;;20.22;57.41;99997.23;1691759;84;20953;-87
2022/06/21 00:11:16;;;;;;;6.15;3.37;;;;;;;20.23;57.49;99988.74;1688807;83;21219;-87
2022/06/21 00:13:42;;;;;;;4.30;3.67;;;;;;;20.22;57.36;99985.25;1687116;84;21350;-87
2022/06/21 00:16:12;;;;;;;8.40;3.65;;;;;;;20.22;57.66;99989.25;1685780;85;21458;-87
2022/06/21 00:18:39;;;;;;;5.12;3.47;;;;;;;20.21;57.93;99985.42;1685730;85;20912;-88
2022/06/21 00:21:25;;;;;;;5.78;3.25;;;;;;;20.17;58.19;99982.28;1685968;84;21031;-87
2022/06/21 00:23:54;;;;;;;6.85;3.47;;;;;;;20.15;58.31;99980.80;1685665;85;21157;-88
2022/06/21 00:26:22;;;;;;;4.05;3.08;;;;;;;20.11;58.36;99978.14;1685733;85;21017;-87
2022/06/21 00:28:53;;;;;;;5.20;3.47;;;;;;;20.06;58.51;99975.48;1685823;84;20944;-87
2022/06/21 00:31:23;;;;;;;5.22;3.33;;;;;;;20.03;58.62;99977.16;1687302;83;20932;-87
2022/06/21 00:33:49;;;;;;;5.70;3.58;;;;;;;20.01;58.67;99974.31;1687975;85;20893;-87
2022/06/21 00:36:27;;;;;;;5.05;3.83;;;;;;;19.98;58.62;99977.32;1688205;83;21294;-88
2022/06/21 00:38:55;;;;;;;4.37;3.95;;;;;;;19.95;58.65;99974.50;1688218;82;21007;-87
2022/06/21 00:41:49;;;;;;;6.95;3.90;;;;;;;19.93;58.64;99971.17;1686461;82;20900;-88
2022/06/21 00:44:27;;;;;;;6.50;4.65;;;;;;;19.92;58.63;99975.33;1685899;84;21402;-88
2022/06/21 00:47:04;;;;;;;4.50;4.03;;;;;;;19.92;58.78;99976.19;1683582;85;21585;-87
2022/06/21 00:49:42;;;;;;;4.67;3.90;;;;;;;19.90;58.71;99978.18;1685857;85;21111;-87
2022/06/21 00:52:21;;;;;;;11.50;4.90;;;;;;;19.88;58.87;99977.52;1686943;85;20948;-87
2022/06/21 00:55:05;;;;;;;9.68;6.47;;;;;;;19.86;58.99;99976.34;1686506;85;21000;-86
2022/06/21 00:57:49;;;;;;;7.85;5.72;;;;;;;19.84;59.18;99973.52;1685972;85;21042;-86
2022/06/21 01:00:36;;;;;;;7.17;5.47;;;;;;;19.80;59.25;99977.01;1686213;85;20959;-86
2022/06/21 01:03:08;;;;;;;11.35;5.28;;;;;;;19.76;59.13;99970.86;1685805;85;21163;-86
2022/06/21 01:05:39;;;;;;;6.60;4.70;;;;;;;19.72;59.28;99973.52;1685745;84;21496;-87
2022/06/21 01:08:08;;;;;;;9.35;5.50;;;;;;;19.69;58.89;99969.37;1685985;84;20948;-87
2022/06/21 01:10:35;;;;;;;8.60;5.45;;;;;;;19.67;58.86;99968.20;1693629;84;21004;-87
2022/06/21 01:13:07;;;;;;;10.80;5.55;;;;;;;19.66;58.90;99967.84;1693705;83;20920;-87
2022/06/21 01:15:45;;;;;;;14.70;5.90;;;;;;;19.66;59.20;99965.19;1670182;84;21778;-87
2022/06/21 01:18:15;;;;;;;11.97;5.70;;;;;;;19.65;59.36;99964.02;1693541;84;20916;-87
2022/06/21 01:24:13;;;;;;;9.45;7.17;;;;;;;19.66;59.43;99961.20;1798116;79;22635;-87
2022/06/21 01:26:57;;;;;;;10.55;6.03;;;;;;;19.61;59.50;99962.20;1759005;80;20852;-87
2022/06/21 01:29:31;;;;;;;8.25;5.05;;;;;;;19.60;59.70;99970.34;1758897;80;21288;-83
2022/06/21 01:32:02;;;;;;;7.75;6.00;;;;;;;19.59;59.80;99964.70;1759131;80;21439;-87
2022/06/21 01:34:29;;;;;;;8.75;4.85;;;;;;;19.56;59.82;99965.84;1758750;80;20923;-87
2022/06/21 01:37:10;;;;;;;11.18;5.62;;;;;;;19.54;60.05;99963.02;1758823;80;20857;-87
2022/06/21 01:40:06;;;;;;;7.17;4.80;;;;;;;19.51;60.16;99963.36;1758967;80;20947;-86
2022/06/21 01:42:40;;;;;;;6.30;4.83;;;;;;;19.49;60.28;99962.70;1758753;81;21801;-87
2022/06/21 01:45:10;;;;;;;9.13;5.60;;;;;;;19.45;60.41;99961.71;1758927;81;21148;-88
2022/06/21 01:47:45;;;;;;;7.20;4.67;;;;;;;19.43;60.64;99958.39;1758737;80;20896;-87
2022/06/21 01:50:13;;;;;;;6.62;5.05;;;;;;;19.41;60.53;99960.38;1758699;80;20935;-85
2022/06/21 01:52:43;;;;;;;7.83;4.95;;;;;;;19.37;60.67;99955.55;1739484;81;20884;-88
2022/06/21 01:55:16;;;;;;;7.53;4.97;;;;;;;19.35;60.65;99953.56;1758711;80;21218;-87
2022/06/21 01:57:42;;;;;;;11.88;5.08;;;;;;;19.33;60.76;99947.58;1758178;80;20841;-88
2022/06/21 02:00:12;;;;;;;11.22;6.55;;;;;;;19.30;60.83;99951.40;1758828;80;20908;-86
2022/06/21 02:02:49;;;;;;;9.23;5.20;;;;;;;19.30;61.02;99949.22;1758537;80;21426;-86
2022/06/21 02:05:24;;;;;;;15.05;7.17;;;;;;;19.28;61.17;99949.40;1758218;80;20956;-87
2022/06/21 02:07:56;;;;;;;;;;;;;;;19.26;60.97;99948.73;1761540;80;21374;-87
2022/06/21 02:10:33;;;;;;;10.08;5.60;;;;;;;19.22;60.90;99946.89;1758707;80;20116;-87
2022/06/21 02:13:06;;;;;;;10.90;6.08;;;;;;;19.21;61.20;99947.08;1758372;80;20888;-87
2022/06/21 02:15:43;;;;;;;10.75;5.90;;;;;;;19.17;61.41;99948.39;1751029;80;20927;-88
2022/06/21 02:18:12;;;;;;;9.65;5.72;;;;;;;19.15;61.78;99943.23;1758063;80;20935;-88
2022/06/21 02:21:03;;;;;;;12.25;6.12;;;;;;;19.13;62.00;99939.91;1758732;81;21979;-88
2022/06/21 02:23:31;;;;;;;12.63;6.72;;;;;;;19.12;62.27;99938.73;1758803;80;20880;-87
2022/06/21 02:25:58;;;;;;;15.55;7.28;;;;;;;19.10;62.46;99940.72;1742138;81;20908;-87
2022/06/21 02:28:28;;;;;;;13.10;7.92;;;;;;;19.09;62.68;99939.07;1758900;81;21476;-88
2022/06/21 02:30:53;;;;;;;16.00;7.28;;;;;;;19.05;62.89;99928.78;1758984;81;21441;-88
2022/06/21 02:33:28;;;;;;;9.00;6.17;;;;;;;19.07;63.15;99937.89;1759034;80;21338;-88
2022/06/21 02:36:01;;;;;;;9.08;7.08;;;;;;;19.07;63.37;99940.55;1758330;81;20936;-87
2022/06/21 02:38:36;;;;;;;16.75;7.90;;;;;;;19.05;63.60;99931.91;1758487;80;20983;-85
2022/06/21 02:41:10;;;;;;;18.50;7.12;;;;;;;19.04;63.72;99925.77;1758384;80;20883;-88
2022/06/21 02:43:40;;;;;;;14.47;7.65;;;;;;;19.03;63.84;99928.58;1758541;80;21472;-87
2022/06/21 02:46:14;;;;;;;19.98;7.75;;;;;;;19.04;64.06;99927.61;1758191;80;21868;-87
2022/06/21 02:48:46;;;;;;;15.23;8.35;;;;;;;19.04;64.10;99928.93;1758335;80;20920;-86
2022/06/21 02:51:21;;;;;;;15.25;8.70;;;;;;;19.04;64.02;99925.77;1758407;81;21385;-89
2022/06/21 02:54:00;;;;;;;12.78;8.43;;;;;;;19.03;64.15;99921.47;1758248;80;20940;-86
2022/06/21 02:56:35;;;;;;;13.25;8.48;;;;;;;19.05;64.34;99927.45;1758666;80;21465;-88
2022/06/21 02:59:02;;;;;;;11.03;8.00;;;;;;;19.05;64.54;99924.79;1756698;81;21390;-88
2022/06/21 03:01:39;;;;;;;16.10;8.43;;;;;;;19.07;64.66;99922.45;1758351;81;20924;-86
2022/06/21 03:04:06;;;;;;;18.20;9.10;;;;;;;19.07;64.85;99926.44;1758207;80;21007;-89
2022/06/21 03:06:33;;;;;;;14.83;9.93;;;;;;;19.08;65.00;99927.61;1758214;81;20948;-89
2022/06/21 03:09:08;;;;;;;21.00;12.70;;;;;;;19.10;65.03;99918.13;1758154;81;20923;-87
2022/06/21 03:11:41;;;;;;;17.23;10.43;;;;;;;19.14;65.17;99916.80;1759736;81;20928;-87
2022/06/21 03:14:15;;;;;;;17.70;11.83;;;;;;;19.18;65.43;99919.47;1759584;81;20932;-88
2022/06/21 03:16:43;;;;;;;17.95;11.25;;;;;;;19.22;65.43;99916.31;1758297;81;21422;-88
2022/06/21 03:19:39;;;;;;;22.40;11.85;;;;;;;19.28;65.42;99912.69;1758533;81;20892;-89
2022/06/21 03:22:20;;;;;;;19.12;13.20;;;;;;;19.32;65.35;99915.31;1758463;80;21504;-89
2022/06/21 03:24:49;;;;;;;21.45;12.93;;;;;;;19.39;65.33;99906.53;1758538;80;21215;-88
2022/06/21 03:27:31;;;;;;;22.52;13.55;;;;;;;19.45;65.28;99912.98;1758203;80;20924;-89
2022/06/21 03:29:58;;;;;;;21.75;12.30;;;;;;;19.50;65.31;99909.35;1758304;81;20967;-89
2022/06/21 03:32:25;;;;;;;21.60;14.07;;;;;;;19.56;65.38;99900.67;1758280;80;21006;-88
2022/06/21 03:34:53;;;;;;;25.97;15.00;;;;;;;19.62;65.63;99900.52;1759986;81;20896;-89
2022/06/21 03:37:20;;;;;;;24.10;14.63;;;;;;;19.69;65.69;99904.19;1709899;81;21167;-86
2022/06/21 03:42:36;;;;;;;40.20;20.48;;;;;;;19.82;65.80;99900.51;1760493;78;20923;-87
2022/06/21 03:45:19;;;;;;;44.55;20.88;;;;;;;19.90;65.71;99897.02;1758343;81;20872;-88
2022/06/21 03:47:51;;;;;;;38.30;21.68;;;;;;;19.98;65.49;99901.47;1758644;81;20916;-88
2022/06/21 03:50:22;;;;;;;41.75;22.93;;;;;;;20.07;65.38;99900.44;1759070;81;21231;-88
2022/06/21 03:53:19;;;;;;;46.63;20.88;;;;;;;20.16;65.14;99896.74;1758358;81;20916;-88
2022/06/21 03:56:03;;;;;;;42.70;23.30;;;;;;;20.26;64.86;99885.91;1758667;81;21425;-89
2022/06/21 03:58:58;;;;;;;42.67;23.92;;;;;;;20.38;64.70;99885.83;1758314;80;20947;-90
2022/06/21 04:01:42;;;;;;;49.40;22.22;;;;;;;20.52;64.73;99887.44;1758604;81;20900;-88
2022/06/21 04:04:33;;;;;;;45.65;25.15;;;;;;;20.65;64.42;99884.58;1757966;81;21323;-89
2022/06/21 04:07:19;;;;;;;43.60;22.70;;;;;;;20.82;64.19;99883.14;1758321;81;20852;-90
2022/06/21 04:09:54;;;;;;;44.55;22.50;;;;;;;20.99;63.63;99889.20;1758415;81;20936;-90
2022/06/21 04:12:25;;;;;;;38.50;20.88;;;;;;;21.23;63.34;99890.81;1758147;80;20849;-89
2022/06/21 04:15:27;;;;;;;36.20;18.60;;;;;;;21.63;62.66;99884.82;1758637;80;20940;-90
2022/06/21 04:18:02;;;;;;;47.93;19.40;;;;;;;22.22;61.06;99885.38;1757537;81;21417;-89
2022/06/21 04:20:47;;;;;;;53.10;18.77;;;;;;;23.02;59.14;99876.95;1758241;80;20900;-90
2022/06/21 04:23:17;;;;;;;;;;;;;;;23.74;56.97;99875.33;1754899;80;20901;-86
2022/06/21 04:26:07;;;;;;;40.78;16.60;;;;;;;24.52;54.36;99877.86;1744767;80;20116;-89
2022/06/21 04:28:43;;;;;;;42.33;15.23;;;;;;;25.20;53.00;99884.48;1745489;81;20953;-89
2022/06/21 04:31:17;;;;;;;32.30;14.50;;;;;;;25.91;51.13;99875.47;1744480;80;21220;-88
2022/06/21 04:33:56;;;;;;;;;;;;;;;26.51;49.65;99876.59;1747531;81;20881;-89
2022/06/21 04:36:36;;;;;;;38.28;12.28;;;;;;;27.06;47.80;99876.37;1745105;81;20081;-90
2022/06/21 04:39:18;;;;;;;44.88;13.90;;;;;;;27.59;46.51;99875.12;1744440;81;21012;-87
2022/06/21 04:42:06;;;;;;;36.23;13.35;;;;;;;28.12;45.25;99869.70;1740785;81;20972;-89
2022/06/21 04:44:48;;;;;;;33.13;11.85;;;;;;;28.62;43.81;99870.04;1744874;82;21410;-89
2022/06/21 04:47:32;;;;;;;25.23;10.60;;;;;;;29.10;42.79;99875.88;1744925;82;21382;-90
2022/06/21 04:50:18;;;;;;;29.10;11.60;;;;;;;29.50;41.46;99880.61;1744874;81;20905;-90
2022/06/21 04:52:56;;;;;;;32.67;10.13;;;;;;;29.93;40.41;99876.75;1744492;82;20992;-89
2022/06/21 04:55:27;;;;;;;33.30;10.08;;;;;;;30.35;39.54;99868.44;1706052;83;21464;-89
2022/06/21 04:57:54;;;;;;;26.42;9.25;;;;;;;30.71;38.97;99860.98;1706062;84;21228;-89
2022/06/21 05:00:21;;;;;;;28.87;9.33;;;;;;;31.04;37.77;99855.31;1706008;84;20954;-89
2022/06/21 05:02:55;;;;;;;25.65;10.15;;;;;;;31.36;37.06;99856.37;1705971;84;20942;-89
2022/06/21 05:05:33;;;;;;;30.57;9.85;;;;;;;31.70;36.60;99863.66;1705885;83;20922;-88
2022/06/21 05:08:19;;;;;;;25.12;9.78;;;;;;;32.00;36.16;99864.09;1705923;84;20934;-89
2022/06/21 05:10:49;;;;;;;20.50;7.58;;;;;;;32.29;35.67;99857.12;1705804;84;21906;-89
2022/06/21 05:13:35;;;;;;;27.10;8.05;;;;;;;32.61;34.76;99852.31;1706000;83;20906;-89
2022/06/21 05:16:07;;;;;;;25.30;7.35;;;;;;;32.90;34.42;99847.95;1705965;83;20985;-89
2022/06/21 05:18:40;;;;;;;16.85;6.03;;;;;;;33.19;33.54;99858.00;1705529;83;20943;-89
2022/06/21 05:21:19;;;;;;;21.25;6.30;;;;;;;33.44;33.42;99847.86;1705752;84;21010;-90
2022/06/21 05:23:47;;;;;;;17.10;5.12;;;;;;;33.69;32.64;99851.29;1707319;83;21254;-88
2022/06/21 05:26:19;;;;;;;15.28;4.97;;;;;;;33.92;32.12;99847.85;1708801;84;20918;-90
2022/06/21 05:28:51;;;;;;;10.90;4.12;;;;;;;34.09;31.98;99850.38;1708434;84;20927;-90
2022/06/21 05:31:24;;;;;;;16.15;4.58;;;;;;;34.25;31.62;99839.83;1709010;84;20919;-88
2022/06/21 05:33:59;;;;;;;11.63;4.22;;;;;;;34.45;31.32;99832.25;1755863;81;20912;-89
2022/06/21 05:36:35;;;;;;;9.68;3.42;;;;;;;34.73;31.06;99830.97;1753857;80;21254;-89
2022/06/21 05:39:10;;;;;;;11.08;3.00;;;;;;;35.02;30.40;99829.06;1758175;80;20869;-89
2022/06/21 05:41:43;;;;;;;13.93;3.35;;;;;;;35.28;30.12;99829.33;1757936;81;20928;-89
2022/06/21 05:44:13;;;;;;;5.47;2.85;;;;;;;35.56;29.62;99825.70;1758434;80;20928;-91
2022/06/21 05:46:49;;;;;;;10.68;2.80;;;;;;;35.78;29.50;99825.38;1758281;81;20837;-88
2022/06/21 05:49:27;;;;;;;9.90;3.45;;;;;;;36.02;29.03;99820.62;1757073;81;21202;-88
2022/06/21 05:51:56;;;;;;;15.43;3.95;;;;;;;36.24;28.77;99810.70;1758181;80;20841;-92
2022/06/21 05:54:31;;;;;;;11.57;3.05;;;;;;;36.48;28.15;99814.91;1758019;80;20888;-88
2022/06/21 05:57:04;;;;;;;8.38;3.42;;;;;;;36.64;27.37;99804.19;1757561;80;20884;-90
2022/06/21 05:59:31;;;;;;;7.95;2.90;;;;;;;36.79;27.33;99805.15;1758248;80;20924;-91
2022/06/21 06:02:20;;;;;;;10.45;3.85;;;;;;;37.01;27.45;99794.55;1758216;80;21194;-90
2022/06/21 06:05:03;;;;;;;11.22;3.42;;;;;;;37.24;27.05;99798.47;1757956;81;20955;-89
2022/06/21 06:07:34;;;;;;;10.18;3.22;;;;;;;37.52;26.94;99798.70;1753358;80;20983;-88
2022/06/21 06:10:01;;;;;;;4.85;2.50;;;;;;;37.72;26.45;99790.82;1758486;81;20939;-90
2022/06/21 06:12:37;;;;;;;8.58;2.98;;;;;;;37.96;26.29;99790.78;1758267;81;20873;-90
2022/06/21 06:15:11;;;;;;;8.85;3.35;;;;;;;38.16;26.17;99785.59;1758646;81;21149;-90
2022/06/21 06:17:59;;;;;;;7.20;3.15;;;;;;;38.29;25.53;99786.22;1758268;81;20927;-90
2022/06/21 06:20:42;;;;;;;11.20;3.15;;;;;;;38.45;25.61;99770.36;1758683;81;20956;-89
2022/06/21 06:23:30;;;;;;;5.17;3.37;;;;;;;38.60;25.39;99771.23;1757811;81;20849;-89
2022/06/21 06:26:20;;;;;;;10.40;4.08;;;;;;;38.67;25.49;99769.75;1758338;81;20928;-90
2022/06/21 06:29:03;;;;;;;57.45;51.35;;;;;;;38.85;25.46;99768.06;1758358;80;21142;-88
2022/06/21 06:31:56;;;;;;;26.42;16.62;;;;;;;38.92;25.27;99762.98;1755431;81;20912;-89
2022/06/21 06:34:26;;;;;;;11.05;5.25;;;;;;;38.92;25.14;99764.36;1759207;81;20860;-88
2022/06/21 06:37:02;;;;;;;10.98;6.95;;;;;;;38.78;25.19;99762.16;1760825;81;20900;-89
2022/06/21 06:39:34;;;;;;;9.75;4.87;;;;;;;38.72;25.29;99759.25;1760890;78;21003;-88
2022/06/21 06:42:17;;;;;;;9.75;3.80;;;;;;;38.63;25.18;99752.84;1760805;78;21108;-87
2022/06/21 06:44:51;;;;;;;6.90;2.98;;;;;;;38.61;25.41;99756.43;1759161;78;21374;-89
2022/06/21 06:47:38;;;;;;;6.33;2.08;;;;;;;38.70;25.06;99750.52;1757291;81;20932;-88
2022/06/21 06:50:29;;;;;;;6.97;2.72;;;;;;;38.90;24.29;99750.14;1758480;81;21010;-89
2022/06/21 06:53:02;;;;;;;4.25;1.85;;;;;;;39.14;23.90;99758.22;1758600;81;21050;-89
2022/06/21 06:55:47;;;;;;;3.60;1.60;;;;;;;39.44;23.87;99750.52;1758507;81;21252;-88
2022/06/21 06:58:48;;;;;;;2.70;1.35;;;;;;;39.70;23.32;99752.73;1758615;81;20928;-88
2022/06/21 07:01:21;;;;;;;4.10;1.57;;;;;;;39.95;23.09;99745.31;1713069;84;20985;-87
2022/06/21 07:03:55;;;;;;;2.17;1.07;;;;;;;40.16;22.57;99738.79;1711216;83;22115;-88
2022/06/21 07:06:47;;;;;;;2.15;1.47;;;;;;;40.26;22.00;99737.72;1710406;83;20946;-89
2022/06/21 07:09:37;;;;;;;4.70;0.78;;;;;;;40.34;21.49;99737.01;1710595;83;20941;-90
2022/06/21 07:12:19;;;;;;;6.37;1.25;;;;;;;40.42;21.10;99736.00;1710645;83;20977;-89
2022/06/21 07:14:46;;;;;;;7.30;2.00;;;;;;;40.50;20.64;99732.50;1710841;84;21017;-89
2022/06/21 07:17:35;;;;;;;4.33;1.25;;;;;;;40.58;20.50;99731.19;1710335;83;20984;-89
2022/06/21 07:20:05;;;;;;;5.62;1.45;;;;;;;40.65;19.89;99732.11;1710685;83;20875;-89
2022/06/21 07:22:34;;;;;;;5.45;1.40;;;;;;;40.75;19.90;99735.17;1710808;83;21182;-89
2022/06/21 07:25:26;;;;;;;12.03;5.97;;;;;;;40.80;20.24;99735.86;1679641;83;20859;-91
2022/06/21 07:27:58;;;;;;;5.75;5.25;;;;;;;40.86;19.51;99729.64;1701238;84;20997;-90
2022/06/21 07:30:31;;;;;;;5.65;5.10;;;;;;;40.74;19.55;99726.13;1701036;83;21032;-89
2022/06/21 07:33:02;;;;;;;0.82;0.78;;;;;;;40.71;19.39;99720.43;1742654;81;20970;-89
2022/06/21 07:35:35;;;;;;;2.83;1.10;;;;;;;40.77;19.55;99718.61;1750899;80;21832;-88
2022/06/21 07:38:16;;;;;;;4.17;1.05;;;;;;;40.79;19.60;99716.35;1750176;80;21341;-88
2022/06/21 07:40:51;;;;;;;1.75;0.95;;;;;;;40.83;19.17;99715.73;1749946;80;20892;-88
2022/06/21 07:43:46;;;;;;;2.55;0.93;;;;;;;40.86;18.92;99715.09;1750320;81;20892;-89
2022/06/21 07:46:21;;;;;;;24.80;3.00;;;;;;;40.86;18.97;99709.02;1750897;80;20931;-89
2022/06/21 07:48:59;;;;;;;2.52;1.12;;;;;;;40.89;18.89;99702.07;1750753;82;21789;-89
2022/06/21 07:51:44;;;;;;;3.80;0.80;;;;;;;40.97;18.85;99706.80;1750699;80;21429;-89
2022/06/21 07:54:23;;;;;;;1.62;0.70;;;;;;;41.08;19.27;99706.76;1750661;81;20919;-87
2022/06/21 07:57:02;;;;;;;3.10;0.88;;;;;;;41.23;19.37;99697.87;1753259;80;20892;-90
2022/06/21 07:59:36;;;;;;;3.02;0.90;;;;;;;41.38;18.98;99699.59;1753619;79;20962;-89
2022/06/21 08:06:41;;;;;;;3.15;0.98;;;;;;;41.62;18.96;99697.80;1753380;78;20899;-89
2022/06/21 08:07:58;;;;;;;2.98;0.93;;;;;;;41.71;18.37;99693.67;1754580;79;20994;-90
2022/06/21 08:10:33;;;;;;;6.42;0.90;;;;;;;41.71;18.26;99686.80;1753212;78;20963;-89
2022/06/21 08:13:00;;;;;;;4.53;1.10;;;;;;;41.72;18.39;99690.35;1752422;80;20892;-89
2022/06/21 08:15:42;;;;;;;2.92;0.80;;;;;;;41.77;18.21;99686.85;1752010;82;21184;-89
2022/06/21 08:18:32;;;;;;;7.03;1.10;;;;;;;41.80;17.98;99677.96;1752330;82;20939;-89
2022/06/21 08:21:03;;;;;;;52.08;46.50;;;;;;;41.85;18.00;99673.42;1752057;82;20912;-87
2022/06/21 08:24:05;;;;;;;6.67;4.17;;;;;;;41.81;17.86;99672.68;1751711;81;20884;-87
2022/06/21 08:26:46;;;;;;;4.87;2.67;;;;;;;41.70;18.10;99674.14;1746864;81;21009;-89
2022/06/21 08:29:35;;;;;;;2.58;0.98;;;;;;;41.58;17.78;99666.53;1745759;82;21488;-90
2022/06/21 08:32:09;;;;;;;3.58;1.02;;;;;;;41.50;18.13;99663.74;1743824;81;20885;-89
2022/06/21 08:34:44;;;;;;;1.20;0.72;;;;;;;41.56;18.13;99661.92;1745106;80;21410;-88
2022/06/21 08:37:36;;;;;;;3.33;0.70;;;;;;;41.70;18.16;99657.63;1745993;81;21399;-88
2022/06/21 08:40:30;;;;;;;1.45;1.32;;;;;;;41.81;18.13;99656.16;1732716;81;20980;-87
2022/06/21 08:43:20;;;;;;;1.25;0.85;;;;;;;41.92;17.75;99651.70;1741604;81;21300;-90
2022/06/21 08:46:27;;;;;;;1.57;0.98;;;;;;;41.97;17.55;99645.44;1744947;81;20995;-89
2022/06/21 08:49:42;;;;;;;2.08;0.65;;;;;;;42.06;17.87;99652.34;1704872;81;20845;-89
2022/06/21 08:52:57;;;;;;;3.65;0.82;;;;;;;42.11;17.62;99649.98;1745027;82;20900;-88
2022/06/21 08:56:17;;;;;;;2.55;0.98;;;;;;;42.13;17.64;99640.83;1744515;81;20932;-89
2022/06/21 08:59:12;;;;;;;1.90;1.05;;;;;;;42.15;17.58;99634.42;1745099;81;21206;-91
2022/06/21 09:02:06;;;;;;;5.00;0.85;;;;;;;42.20;17.77;99635.61;1744733;82;20932;-89
2022/06/21 09:04:54;;;;;;;4.70;1.62;;;;;;;42.17;17.69;99631.58;1745549;82;20897;-90
2022/06/21 09:07:51;;;;;;;10.60;2.62;;;;;;;42.14;17.80;99624.55;1744986;81;20937;-89
2022/06/21 09:10:43;;;;;;;6.60;3.37;;;;;;;42.04;17.47;99620.98;1745964;81;20913;-89
2022/06/21 09:13:13;;;;;;;;;;;;;;;42.10;18.33;99615.32;1748112;80;21038;-89
2022/06/21 09:16:17;;;;;;;5.07;1.03;;;;;;;42.10;18.06;99609.81;1745495;81;20430;-90
2022/06/21 09:19:15;;;;;;;1.25;0.98;;;;;;;41.88;17.87;99610.22;1744931;81;20964;-90
2022/06/21 09:21:55;;;;;;;3.67;0.95;;;;;;;41.71;17.78;99604.73;1745204;81;20913;-91
2022/06/21 09:24:40;;;;;;;4.62;0.82;;;;;;;41.65;17.76;99597.22;1748385;80;20908;-90
2022/06/21 09:27:18;;;;;;;2.08;0.65;;;;;;;41.32;17.78;99589.98;1758380;81;21116;-90
2022/06/21 09:30:19;;;;;;;3.87;1.10;;;;;;;41.20;18.07;99587.31;1758328;81;20967;-89
2022/06/21 09:33:14;;;;;;;2.35;1.02;;;;;;;41.12;18.42;99589.45;1758740;81;20960;-91
2022/06/21 09:35:55;;;;;;;3.02;0.70;;;;;;;41.17;18.36;99571.43;1760677;81;20877;-90
2022/06/21 09:38:36;;;;;;;5.12;0.80;;;;;;;41.31;18.48;99563.05;1761514;81;20860;-89
2022/06/21 09:41:41;;;;;;;3.87;0.80;;;;;;;41.39;18.09;99563.59;1726589;78;21066;-90
2022/06/21 09:44:37;;;;;;;3.47;0.90;;;;;;;41.43;17.97;99562.38;1712092;83;21009;-91
2022/06/21 09:47:16;;;;;;;20.52;1.50;;;;;;;41.40;17.81;99564.39;1710780;83;21339;-90
2022/06/21 09:49:58;;;;;;;1.98;0.80;;;;;;;41.43;17.70;99557.68;1710975;83;21060;-89
2022/06/21 09:52:52;;;;;;;2.60;1.15;;;;;;;41.32;17.86;99555.59;1689599;84;20993;-89
2022/06/21 09:55:32;;;;;;;4.58;0.72;;;;;;;41.30;17.79;99554.53;1711464;83;21220;-88
2022/06/21 09:58:25;;;;;;;13.80;1.50;;;;;;;41.32;17.84;99545.95;1710564;83;20981;-89
2022/06/21 10:01:10;;;;;;;3.12;0.90;;;;;;;41.25;17.80;99542.89;1711136;83;20917;-89
2022/06/21 10:04:02;;;;;;;3.52;0.93;;;;;;;41.11;18.06;99547.95;1711338;84;21414;-88
2022/06/21 10:06:43;;;;;;;1.02;0.70;;;;;;;41.14;18.26;99539.07;1711490;83;20949;-88
2022/06/21 10:09:41;;;;;;;2.70;0.90;;;;;;;41.28;18.21;99538.91;1709618;83;20941;-89
2022/06/21 10:12:30;;;;;;;3.22;1.07;;;;;;;41.43;18.10;99530.73;1711228;83;21419;-88
2022/06/21 10:15:23;;;;;;;3.22;0.60;;;;;;;41.45;17.57;99540.05;1710657;84;20989;-89
2022/06/21 10:18:01;;;;;;;1.52;0.70;;;;;;;41.25;17.80;99536.81;1723201;80;21501;-88
2022/06/21 10:20:40;;;;;;;2.15;1.02;;;;;;;41.12;17.56;99517.92;1758569;81;20963;-88
2022/06/21 10:23:34;;;;;;;7.72;1.07;;;;;;;41.15;18.03;99513.16;1758560;81;21818;-89
2022/06/21 10:26:31;;;;;;;4.50;0.88;;;;;;;41.16;18.19;99511.25;1758274;80;20864;-88
2022/06/21 10:29:22;;;;;;;2.47;0.85;;;;;;;41.24;18.12;99519.23;1757774;81;21450;-89
2022/06/21 10:32:15;;;;;;;;;;;;;;;41.31;18.12;99516.27;1760910;80;20892;-89
2022/06/21 10:34:56;;;;;;;7.08;1.12;;;;;;;41.46;17.97;99517.68;1759291;81;20109;-88
2022/06/21 10:38:04;;;;;;;4.40;0.90;;;;;;;41.46;17.36;99511.38;1758886;81;21862;-88
2022/06/21 10:40:43;;;;;;;1.80;0.72;;;;;;;41.45;17.01;99502.89;1758236;80;20853;-88
2022/06/21 10:43:51;;;;;;;4.47;1.30;;;;;;;41.41;17.22;99498.59;1758291;81;20982;-88
2022/06/21 10:46:21;;;;;;;3.35;0.88;;;;;;;41.45;17.44;99502.31;1727678;81;20913;-88
2022/06/21 10:49:24;;;;;;;1.95;0.98;;;;;;;41.46;17.48;99491.53;1761025;80;20967;-90
2022/06/21 10:52:12;;;;;;;3.12;0.70;;;;;;;41.46;17.79;99486.60;1760658;80;21095;-87
2022/06/21 10:54:46;;;;;;;6.20;1.17;;;;;;;41.55;17.63;99479.12;1758933;81;20929;-89
2022/06/21 10:57:29;;;;;;;1.57;0.85;;;;;;;41.68;17.58;99478.73;1758710;81;20877;-88
2022/06/21 11:03:32;;;;;;;2.33;0.85;;;;;;;41.77;17.46;99481.69;1684553;84;20991;-89
2022/06/21 11:06:26;;;;;;;3.65;1.30;;;;;;;41.69;17.38;99474.83;1684358;85;20904;-91
2022/06/21 11:09:24;;;;;;;8.28;1.27;;;;;;;41.62;17.40;99479.46;1684456;85;20944;-89
2022/06/21 11:15:08;;;;;;;4.62;1.02;;;;;;;41.24;17.21;99461.46;1684538;84;20979;-88
2022/06/21 11:18:12;;;;;;;2.65;1.05;;;;;;;41.11;17.24;99461.84;1684693;84;21003;-89
2022/06/21 11:21:06;;;;;;;2.35;1.20;;;;;;;40.91;17.63;99465.51;1684544;83;20888;-88
2022/06/21 11:24:09;;;;;;;4.62;1.65;;;;;;;40.72;17.44;99452.05;1684365;85;20920;-88
2022/06/21 11:27:06;;;;;;;2.40;1.42;;;;;;;40.53;18.03;99450.13;1683998;84;20888;-88
2022/06/21 11:30:07;;;;;;;5.58;1.37;;;;;;;40.28;17.96;99455.83;1634370;87;21071;-90
2022/06/21 11:32:58;;;;;;;2.40;0.82;;;;;;;39.98;18.24;99454.98;1634600;87;20927;-87
2022/06/21 11:35:46;;;;;;;3.22;1.20;;;;;;;39.61;18.18;99443.86;1682558;85;21825;-90
2022/06/21 11:39:00;;;;;;;1.87;1.07;;;;;;;39.15;18.24;99449.09;1649013;86;20924;-89
2022/06/21 11:44:45;;;;;;;3.95;1.00;;;;;;;38.26;19.51;99432.67;1649207;86;20972;-88
2022/06/21 11:47:18;;;;;;;2.45;0.95;;;;;;;37.88;20.02;99428.73;1684508;84;20969;-89
2022/06/21 11:50:17;;;;;;;0.78;0.72;;;;;;;37.54;20.49;99427.95;1649502;87;21127;-90
2022/06/21 11:53:21;;;;;;;6.47;1.10;;;;;;;37.21;20.98;99419.50;1684859;85;21572;-88
2022/06/21 11:56:21;;;;;;;5.17;1.15;;;;;;;36.85;21.19;99418.66;1649192;86;20976;-89
2022/06/21 11:59:21;;;;;;;3.60;0.80;;;;;;;36.57;21.97;99411.64;1684373;84;21009;-90
2022/06/21 12:02:17;;;;;;;10.05;1.00;;;;;;;36.33;22.10;99412.23;1649310;86;21000;-90
2022/06/21 12:04:50;;;;;;;3.85;1.17;;;;;;;36.12;22.09;99402.94;1684653;84;21321;-89
2022/06/21 12:07:37;;;;;;;5.75;0.90;;;;;;;35.95;22.41;99408.83;1688228;84;21421;-90
2022/06/21 12:10:20;;;;;;;1.72;0.82;;;;;;;35.84;22.81;99411.41;1704374;84;21395;-90
2022/06/21 12:13:09;;;;;;;3.80;1.00;;;;;;;35.76;22.69;99399.23;1693736;84;21512;-89
2022/06/21 12:15:58;;;;;;;5.25;1.67;;;;;;;35.66;23.11;99390.61;1693501;84;20950;-90
2022/06/21 12:18:29;;;;;;;3.62;0.95;;;;;;;35.50;23.08;99392.63;1693459;84;21283;-89
2022/06/21 12:21:03;;;;;;;5.90;0.90;;;;;;;35.37;23.44;99396.58;1693401;84;21045;-90
2022/06/21 12:23:41;;;;;;;5.55;1.12;;;;;;;35.26;23.53;99387.66;1688481;83;21032;-89
2022/06/21 12:26:18;;;;;;;1.10;0.75;;;;;;;35.17;23.26;99389.38;1685629;84;20995;-90
2022/06/21 12:28:44;;;;;;;2.55;1.05;;;;;;;35.06;23.84;99381.28;1744337;81;21423;-88
2022/06/21 12:31:36;;;;;;;2.27;1.55;;;;;;;34.98;23.83;99380.52;1745062;81;21229;-89
2022/06/21 12:34:11;;;;;;;0.90;0.65;;;;;;;34.91;23.44;99368.30;1745997;78;20811;-89
2022/06/21 12:36:48;;;;;;;2.47;0.75;;;;;;;34.78;23.81;99375.22;1747396;78;20894;-88
2022/06/21 12:39:26;;;;;;;3.33;0.80;;;;;;;34.72;24.09;99371.70;1746912;81;21117;-89
2022/06/21 12:42:07;;;;;;;4.40;1.02;;;;;;;34.68;24.32;99370.64;1747741;78;20850;-89
2022/06/21 12:44:49;;;;;;;1.57;0.90;;;;;;;34.60;24.02;99363.05;1745701;81;21158;-88
2022/06/21 12:47:47;;;;;;;1.40;0.80;;;;;;;34.40;23.79;99362.07;1745361;81;20936;-90
2022/06/21 12:50:41;;;;;;;6.90;1.07;;;;;;;34.14;24.01;99357.30;1745840;81;20933;-90